sensor_id;sensor_type;location;lat;lon;timestamp;pressure;altitude;pressure_sealevel;temperature;humidity
27643;BME280;15053;48.618;10.024;2023-05-12T00:01:15;93958.00;;;10.80;95.97
27643;BME280;15053;48.618;10.024;2023-05-12T00:03:42;93951.28;;;10.79;95.93
27643;BME280;15053;48.618;10.024;2023-05-12T00:06:09;93949.13;;;10.81;96.29
27643;BME280;15053;48.618;10.024;2023-05-12T00:08:36;93950.69;;;10.82;96.42
27643;BME280;15053;48.618;10.024;2023-05-12T00:11:03;93951.16;;;10.84;96.30
27643;BME280;15053;48.618;10.024;2023-05-12T00:13:30;93951.47;;;10.82;96.62
27643;BME280;15053;48.618;10.024;2023-05-12T00:15:56;93946.06;;;10.79;95.88
27643;BME280;15053;48.618;10.024;2023-05-12T00:18:24;93944.53;;;10.78;96.06
27643;BME280;15053;48.618;10.024;2023-05-12T00:20:51;93942.03;;;10.73;96.27
27643;BME280;15053;48.618;10.024;2023-05-12T00:23:20;93946.66;;;10.76;96.17
27643;BME280;15053;48.618;10.024;2023-05-12T00:25:48;93948.69;;;10.79;96.51
27643;BME280;15053;48.618;10.024;2023-05-12T00:28:15;93944.53;;;10.78;96.74
27643;BME280;15053;48.618;10.024;2023-05-12T00:30:42;93952.53;;;10.81;96.94
27643;BME280;15053;48.618;10.024;2023-05-12T00:33:08;93948.38;;;10.80;96.88
27643;BME280;15053;48.618;10.024;2023-05-12T00:35:35;93954.34;;;10.81;96.91
27643;BME280;15053;48.618;10.024;2023-05-12T00:38:01;93944.41;;;10.83;96.74
27643;BME280;15053;48.618;10.024;2023-05-12T00:40:28;93940.75;;;10.84;96.66
27643;BME280;15053;48.618;10.024;2023-05-12T00:42:54;93944.91;;;10.85;97.04
27643;BME280;15053;48.618;10.024;2023-05-12T00:45:21;93938.31;;;10.87;96.74
27643;BME280;15053;48.618;10.024;2023-05-12T00:47:49;93941.97;;;10.86;96.73
27643;BME280;15053;48.618;10.024;2023-05-12T00:50:16;93937.53;;;10.87;96.49
27643;BME280;15053;48.618;10.024;2023-05-12T00:52:45;93941.22;;;10.86;96.84
27643;BME280;15053;48.618;10.024;2023-05-12T00:55:12;93941.97;;;10.86;96.60
27643;BME280;15053;48.618;10.024;2023-05-12T00:57:39;93940.16;;;10.87;96.95
27643;BME280;15053;48.618;10.024;2023-05-12T01:00:07;93944.28;;;10.88;96.97
27643;BME280;15053;48.618;10.024;2023-05-12T01:02:35;93936.97;;;10.90;97.09
27643;BME280;15053;48.618;10.024;2023-05-12T01:05:02;93933.28;;;10.91;96.92
27643;BME280;15053;48.618;10.024;2023-05-12T01:07:31;93929.59;;;10.92;96.99
27643;BME280;15053;48.618;10.024;2023-05-12T01:09:59;93933.56;;;10.89;96.68
27643;BME280;15053;48.618;10.024;2023-05-12T01:12:28;93934.47;;;10.85;96.89
27643;BME280;15053;48.618;10.024;2023-05-12T01:14:55;93929.06;;;10.81;97.14
27643;BME280;15053;48.618;10.024;2023-05-12T01:17:32;93925.22;;;10.79;96.92
27643;BME280;15053;48.618;10.024;2023-05-12T01:20:02;93923.50;;;10.74;96.88
27643;BME280;15053;48.618;10.024;2023-05-12T01:22:32;93924.75;;;10.77;96.73
27643;BME280;15053;48.618;10.024;2023-05-12T01:25:02;93928.88;;;10.78;97.37
27643;BME280;15053;48.618;10.024;2023-05-12T01:27:30;93926.00;;;10.79;97.29
27643;BME280;15053;48.618;10.024;2023-05-12T01:30:02;93924.75;;;10.77;96.84
27643;BME280;15053;48.618;10.024;2023-05-12T01:32:34;93919.06;;;10.75;97.00
27643;BME280;15053;48.618;10.024;2023-05-12T01:35:01;93924.91;;;10.80;97.15
27643;BME280;15053;48.618;10.024;2023-05-12T01:37:30;93927.25;;;10.82;96.81
27643;BME280;15053;48.618;10.024;2023-05-12T01:39:58;93930.13;;;10.80;96.46
27643;BME280;15053;48.618;10.024;2023-05-12T01:42:25;93930.91;;;10.81;96.35
27643;BME280;15053;48.618;10.024;2023-05-12T01:44:52;93927.84;;;10.79;96.65
27643;BME280;15053;48.618;10.024;2023-05-12T01:47:18;93927.84;;;10.79;96.72
27643;BME280;15053;48.618;10.024;2023-05-12T01:49:53;93929.34;;;10.80;96.85
27643;BME280;15053;48.618;10.024;2023-05-12T01:52:19;93933.50;;;10.81;96.35
27643;BME280;15053;48.618;10.024;2023-05-12T01:54:46;93933.50;;;10.81;96.81
27643;BME280;15053;48.618;10.024;2023-05-12T01:57:13;93928.31;;;10.81;96.84
27643;BME280;15053;48.618;10.024;2023-05-12T01:59:40;93934.56;;;10.80;96.54
27643;BME280;15053;48.618;10.024;2023-05-12T02:02:07;93927.97;;;10.74;96.62
27643;BME280;15053;48.618;10.024;2023-05-12T02:04:33;93925.81;;;10.76;96.43
27643;BME280;15053;48.618;10.024;2023-05-12T02:07:00;93932.84;;;10.75;96.61
27643;BME280;15053;48.618;10.024;2023-05-12T02:09:27;93929.19;;;10.76;96.76
27643;BME280;15053;48.618;10.024;2023-05-12T02:11:59;93932.09;;;10.75;96.49
27643;BME280;15053;48.618;10.024;2023-05-12T02:14:26;93932.38;;;10.73;96.54
27643;BME280;15053;48.618;10.024;2023-05-12T02:16:54;93931.63;;;10.73;96.61
27643;BME280;15053;48.618;10.024;2023-05-12T02:19:22;93912.53;;;10.63;96.85
27643;BME280;15053;48.618;10.024;2023-05-12T02:21:49;93935.00;;;10.73;96.64
27643;BME280;15053;48.618;10.024;2023-05-12T02:24:15;93922.56;;;10.70;96.92
27643;BME280;15053;48.618;10.024;2023-05-12T02:26:43;93917.16;;;10.66;96.67
27643;BME280;15053;48.618;10.024;2023-05-12T02:29:10;93933.16;;;10.74;96.70
27643;BME280;15053;48.618;10.024;2023-05-12T02:31:37;93920.72;;;10.71;97.08
27643;BME280;15053;48.618;10.024;2023-05-12T02:34:13;93929.47;;;10.75;96.73
27643;BME280;15053;48.618;10.024;2023-05-12T02:36:40;93930.25;;;10.75;96.78
27643;BME280;15053;48.618;10.024;2023-05-12T02:39:07;93927.38;;;10.77;97.23
27643;BME280;15053;48.618;10.024;2023-05-12T02:41:34;93932.56;;;10.77;96.74
27643;BME280;15053;48.618;10.024;2023-05-12T02:44:00;93933.03;;;10.79;96.46
27643;BME280;15053;48.618;10.024;2023-05-12T02:46:27;93927.38;;;10.77;97.04
27643;BME280;15053;48.618;10.024;2023-05-12T02:48:54;93932.56;;;10.77;96.44
27643;BME280;15053;48.618;10.024;2023-05-12T02:51:21;93933.31;;;10.77;96.38
27643;BME280;15053;48.618;10.024;2023-05-12T02:53:47;93924.25;;;10.75;96.70
27643;BME280;15053;48.618;10.024;2023-05-12T02:56:14;93928.88;;;10.78;96.89
27643;BME280;15053;48.618;10.024;2023-05-12T02:58:41;93925.50;;;10.77;96.87
27643;BME280;15053;48.618;10.024;2023-05-12T03:01:07;93925.22;;;10.79;97.01
27643;BME280;15053;48.618;10.024;2023-05-12T03:03:37;93926.75;;;10.80;97.12
27643;BME280;15053;48.618;10.024;2023-05-12T03:06:05;93926.00;;;10.79;96.58
27643;BME280;15053;48.618;10.024;2023-05-12T03:08:32;93927.53;;;10.80;96.94
27643;BME280;15053;48.618;10.024;2023-05-12T03:10:58;93920.03;;;10.79;96.82
27643;BME280;15053;48.618;10.024;2023-05-12T03:13:25;93927.84;;;10.79;97.13
27643;BME280;15053;48.618;10.024;2023-05-12T03:15:51;93933.03;;;10.79;96.89
27643;BME280;15053;48.618;10.024;2023-05-12T03:18:18;93925.50;;;10.77;96.74
27643;BME280;15053;48.618;10.024;2023-05-12T03:20:44;93926.59;;;10.76;96.67
27643;BME280;15053;48.618;10.024;2023-05-12T03:23:11;93921.97;;;10.73;96.90
27643;BME280;15053;48.618;10.024;2023-05-12T03:25:37;93921.66;;;10.75;96.90
27643;BME280;15053;48.618;10.024;2023-05-12T03:28:04;93923.50;;;10.74;97.13
27643;BME280;15053;48.618;10.024;2023-05-12T03:30:31;93922.75;;;10.74;97.09
27643;BME280;15053;48.618;10.024;2023-05-12T03:32:58;93921.19;;;10.73;97.34
27643;BME280;15053;48.618;10.024;2023-05-12T03:35:25;93924.38;;;10.70;97.36
27643;BME280;15053;48.618;10.024;2023-05-12T03:37:52;93927.00;;;10.70;97.04
27643;BME280;15053;48.618;10.024;2023-05-12T03:40:19;93926.22;;;10.69;96.97
27643;BME280;15053;48.618;10.024;2023-05-12T03:42:46;93919.50;;;10.68;97.03
27643;BME280;15053;48.618;10.024;2023-05-12T03:45:12;93925.44;;;10.68;97.04
27643;BME280;15053;48.618;10.024;2023-05-12T03:47:39;93923.63;;;10.69;97.28
27643;BME280;15053;48.618;10.024;2023-05-12T03:50:07;93909.66;;;10.65;97.31
27643;BME280;15053;48.618;10.024;2023-05-12T03:52:34;93920.22;;;10.68;97.36
27643;BME280;15053;48.618;10.024;2023-05-12T03:55:04;93924.09;;;10.71;97.74
27643;BME280;15053;48.618;10.024;2023-05-12T03:57:32;93923.34;;;10.71;97.56
27643;BME280;15053;48.618;10.024;2023-05-12T03:59:59;93920.72;;;10.71;97.44
27643;BME280;15053;48.618;10.024;2023-05-12T04:02:26;93918.13;;;10.71;97.33
27643;BME280;15053;48.618;10.024;2023-05-12T04:04:53;93919.19;;;10.70;97.23
27643;BME280;15053;48.618;10.024;2023-05-12T04:07:20;93924.38;;;10.70;97.73
27643;BME280;15053;48.618;10.024;2023-05-12T04:09:46;93919.19;;;10.70;97.16
27643;BME280;15053;48.618;10.024;2023-05-12T04:12:13;93915.53;;;10.71;97.92
27643;BME280;15053;48.618;10.024;2023-05-12T04:14:39;93925.34;;;10.74;97.29
27643;BME280;15053;48.618;10.024;2023-05-12T04:17:08;93922.75;;;10.74;97.04
27643;BME280;15053;48.618;10.024;2023-05-12T04:19:35;93920.41;;;10.72;97.55
27643;BME280;15053;48.618;10.024;2023-05-12T04:22:02;93924.75;;;10.77;97.27
27643;BME280;15053;48.618;10.024;2023-05-12T04:24:28;93928.88;;;10.78;97.16
27643;BME280;15053;48.618;10.024;2023-05-12T04:26:56;93914.94;;;10.74;97.12
27643;BME280;15053;48.618;10.024;2023-05-12T04:29:23;93933.81;;;10.79;96.86
27643;BME280;15053;48.618;10.024;2023-05-12T04:31:50;93930.13;;;10.80;96.99
27643;BME280;15053;48.618;10.024;2023-05-12T04:34:16;93933.03;;;10.79;96.89
27643;BME280;15053;48.618;10.024;2023-05-12T04:36:43;93933.50;;;10.81;97.07
27643;BME280;15053;48.618;10.024;2023-05-12T04:39:09;93941.78;;;10.83;97.14
27643;BME280;15053;48.618;10.024;2023-05-12T04:41:36;93939.69;;;10.85;97.45
27643;BME280;15053;48.618;10.024;2023-05-12T04:44:03;93941.69;;;10.88;97.43
27643;BME280;15053;48.618;10.024;2023-05-12T04:46:31;93938.47;;;10.91;97.61
27643;BME280;15053;48.618;10.024;2023-05-12T04:48:59;93944.66;;;10.95;97.57
27643;BME280;15053;48.618;10.024;2023-05-12T04:51:25;93939.63;;;10.98;97.64
27643;BME280;15053;48.618;10.024;2023-05-12T04:53:51;93943.47;;;11.01;97.07
27643;BME280;15053;48.618;10.024;2023-05-12T04:56:19;93935.00;;;10.95;96.71
27643;BME280;15053;48.618;10.024;2023-05-12T04:58:47;93948.69;;;11.01;97.08
27643;BME280;15053;48.618;10.024;2023-05-12T05:01:13;93942.69;;;11.00;96.78
27643;BME280;15053;48.618;10.024;2023-05-12T05:03:40;93949.16;;;11.03;97.28
27643;BME280;15053;48.618;10.024;2023-05-12T05:06:06;93949.16;;;11.03;97.54
27643;BME280;15053;48.618;10.024;2023-05-12T05:08:33;93951.16;;;11.06;97.16
27643;BME280;15053;48.618;10.024;2023-05-12T05:10:59;93955.91;;;11.04;97.38
27643;BME280;15053;48.618;10.024;2023-05-12T05:13:28;93951.75;;;11.03;97.43
27643;BME280;15053;48.618;10.024;2023-05-12T05:15:54;93948.84;;;11.04;96.84
27643;BME280;15053;48.618;10.024;2023-05-12T05:18:23;93951.94;;;11.06;96.99
27643;BME280;15053;48.618;10.024;2023-05-12T05:20:51;93950.13;;;11.07;96.90
27643;BME280;15053;48.618;10.024;2023-05-12T05:23:21;93950.84;;;11.07;96.65
27643;BME280;15053;48.618;10.024;2023-05-12T05:25:48;93950.13;;;11.07;96.17
27643;BME280;15053;48.618;10.024;2023-05-12T05:28:14;93952.88;;;11.10;96.08
27643;BME280;15053;48.618;10.024;2023-05-12T05:30:42;93950.00;;;11.12;96.18
27643;BME280;15053;48.618;10.024;2023-05-12T05:33:09;93955.66;;;11.14;96.97
27643;BME280;15053;48.618;10.024;2023-05-12T05:35:38;93952.75;;;11.15;96.71
27643;BME280;15053;48.618;10.024;2023-05-12T05:38:04;93953.72;;;11.19;96.48
27643;BME280;15053;48.618;10.024;2023-05-12T05:40:31;93953.41;;;11.21;96.65
27643;BME280;15053;48.618;10.024;2023-05-12T05:43:14;93961.53;;;11.19;96.70
27643;BME280;15053;48.618;10.024;2023-05-12T05:45:41;93968.28;;;11.20;96.62
27643;BME280;15053;48.618;10.024;2023-05-12T05:48:07;93964.97;;;11.29;96.82
27643;BME280;15053;48.618;10.024;2023-05-12T05:50:34;93963.28;;;11.33;96.71
27643;BME280;15053;48.618;10.024;2023-05-12T05:53:00;93967.59;;;11.37;96.38
27643;BME280;15053;48.618;10.024;2023-05-12T05:55:27;93968.09;;;11.39;96.24
27643;BME280;15053;48.618;10.024;2023-05-12T05:57:54;93965.63;;;11.43;96.70
27643;BME280;15053;48.618;10.024;2023-05-12T06:00:21;93964.00;;;11.47;96.19
27643;BME280;15053;48.618;10.024;2023-05-12T06:02:49;93962.34;;;11.51;96.19
27643;BME280;15053;48.618;10.024;2023-05-12T06:05:20;93963.09;;;11.51;95.86
27643;BME280;15053;48.618;10.024;2023-05-12T06:07:47;93963.25;;;11.55;95.80
27643;BME280;15053;48.618;10.024;2023-05-12T06:10:13;93974.66;;;11.59;96.07
27643;BME280;15053;48.618;10.024;2023-05-12T06:12:40;93969.59;;;11.62;95.36
27643;BME280;15053;48.618;10.024;2023-05-12T06:15:07;93971.91;;;11.64;95.16
27643;BME280;15053;48.618;10.024;2023-05-12T06:17:34;93978.38;;;11.66;95.36
27643;BME280;15053;48.618;10.024;2023-05-12T06:20:01;93978.66;;;11.65;94.54
27643;BME280;15053;48.618;10.024;2023-05-12T06:22:28;93983.13;;;11.64;94.69
27643;BME280;15053;48.618;10.024;2023-05-12T06:24:54;93981.44;;;11.68;94.63
27643;BME280;15053;48.618;10.024;2023-05-12T06:27:21;93981.44;;;11.68;95.09
27643;BME280;15053;48.618;10.024;2023-05-12T06:29:47;93983.00;;;11.69;94.88
27643;BME280;15053;48.618;10.024;2023-05-12T06:32:14;93984.03;;;11.68;94.83
27643;BME280;15053;48.618;10.024;2023-05-12T06:34:41;93983.78;;;11.70;94.40
27643;BME280;15053;48.618;10.024;2023-05-12T06:37:08;93986.56;;;11.73;95.03
27643;BME280;15053;48.618;10.024;2023-05-12T06:39:34;93980.75;;;11.76;94.68
27643;BME280;15053;48.618;10.024;2023-05-12T06:42:01;93980.28;;;11.74;94.72
27643;BME280;15053;48.618;10.024;2023-05-12T06:44:38;93985.19;;;11.76;94.31
27643;BME280;15053;48.618;10.024;2023-05-12T06:47:07;93985.66;;;11.78;94.48
27643;BME280;15053;48.618;10.024;2023-05-12T06:49:34;93984.75;;;11.82;94.00
27643;BME280;15053;48.618;10.024;2023-05-12T06:52:05;93982.63;;;11.84;93.95
27643;BME280;15053;48.618;10.024;2023-05-12T06:54:32;93984.16;;;11.86;94.08
27643;BME280;15053;48.618;10.024;2023-05-12T06:56:59;93983.38;;;11.85;94.12
27643;BME280;15053;48.618;10.024;2023-05-12T06:59:25;93991.25;;;11.94;94.07
27643;BME280;15053;48.618;10.024;2023-05-12T07:01:52;93992.19;;;11.98;93.95
27643;BME280;15053;48.618;10.024;2023-05-12T07:04:18;93981.75;;;11.98;94.18
27643;BME280;15053;48.618;10.024;2023-05-12T07:06:45;93986.97;;;11.98;93.92
27643;BME280;15053;48.618;10.024;2023-05-12T07:09:11;93979.75;;;12.03;93.13
27643;BME280;15053;48.618;10.024;2023-05-12T07:11:39;93975.66;;;12.11;93.02
27643;BME280;15053;48.618;10.024;2023-05-12T07:14:05;93980.75;;;12.16;92.77
27643;BME280;15053;48.618;10.024;2023-05-12T07:16:32;93984.88;;;12.17;91.62
27643;BME280;15053;48.618;10.024;2023-05-12T07:18:58;93981.66;;;12.20;91.19
27643;BME280;15053;48.618;10.024;2023-05-12T07:21:25;93984.44;;;12.23;90.93
27643;BME280;15053;48.618;10.024;2023-05-12T07:23:52;93985.53;;;12.31;91.02
27643;BME280;15053;48.618;10.024;2023-05-12T07:26:18;93979.44;;;12.35;90.80
27643;BME280;15053;48.618;10.024;2023-05-12T07:28:45;93980.78;;;12.41;90.64
27643;BME280;15053;48.618;10.024;2023-05-12T07:31:11;93982.19;;;12.39;90.71
27643;BME280;15053;48.618;10.024;2023-05-12T07:33:38;93986.03;;;12.41;90.61
27643;BME280;15053;48.618;10.024;2023-05-12T07:36:04;93985.59;;;12.48;90.75
27643;BME280;15053;48.618;10.024;2023-05-12T07:38:31;93972.22;;;12.58;90.54
27643;BME280;15053;48.618;10.024;2023-05-12T07:40:58;93980.25;;;12.70;90.17
27643;BME280;15053;48.618;10.024;2023-05-12T07:43:25;93976.56;;;12.80;90.26
27643;BME280;15053;48.618;10.024;2023-05-12T07:45:51;93972.59;;;12.91;90.37
27643;BME280;15053;48.618;10.024;2023-05-12T07:48:18;93975.66;;;13.01;90.06
27643;BME280;15053;48.618;10.024;2023-05-12T07:50:44;93971.19;;;13.11;90.01
27643;BME280;15053;48.618;10.024;2023-05-12T07:53:11;93981.50;;;13.24;89.68
27643;BME280;15053;48.618;10.024;2023-05-12T07:55:37;93980.41;;;13.34;89.09
27643;BME280;15053;48.618;10.024;2023-05-12T07:58:04;93979.19;;;13.40;88.22
27643;BME280;15053;48.618;10.024;2023-05-12T08:00:30;93983.16;;;13.46;88.01
27643;BME280;15053;48.618;10.024;2023-05-12T08:02:57;93984.69;;;13.47;87.46
27643;BME280;15053;48.618;10.024;2023-05-12T08:05:23;93969.78;;;13.47;87.20
27643;BME280;15053;48.618;10.024;2023-05-12T08:07:50;93980.25;;;13.47;86.46
27643;BME280;15053;48.618;10.024;2023-05-12T08:10:17;93991.94;;;13.41;86.22
27643;BME280;15053;48.618;10.024;2023-05-12T08:12:44;93982.56;;;13.40;86.09
27643;BME280;15053;48.618;10.024;2023-05-12T08:15:11;93983.81;;;13.43;86.54
27643;BME280;15053;48.618;10.024;2023-05-12T08:17:38;93984.88;;;13.42;86.45
27643;BME280;15053;48.618;10.024;2023-05-12T08:20:05;93991.00;;;13.46;86.51
27643;BME280;15053;48.618;10.024;2023-05-12T08:22:32;93978.50;;;13.60;86.28
27643;BME280;15053;48.618;10.024;2023-05-12T08:24:58;93982.16;;;13.76;85.72
27643;BME280;15053;48.618;10.024;2023-05-12T08:27:25;93984.91;;;13.88;85.46
27643;BME280;15053;48.618;10.024;2023-05-12T08:29:52;93976.91;;;13.85;84.81
27643;BME280;15053;48.618;10.024;2023-05-12T08:32:18;93979.38;;;13.90;84.22
27643;BME280;15053;48.618;10.024;2023-05-12T08:34:45;93983.06;;;13.89;84.31
27643;BME280;15053;48.618;10.024;2023-05-12T08:37:12;93979.66;;;13.88;84.15
27643;BME280;15053;48.618;10.024;2023-05-12T08:39:38;93973.84;;;13.83;83.88
27643;BME280;15053;48.618;10.024;2023-05-12T08:44:37;93988.66;;;13.70;84.20
27643;BME280;15053;48.618;10.024;2023-05-12T08:47:04;93994.38;;;13.64;84.35
27643;BME280;15053;48.618;10.024;2023-05-12T08:49:34;93992.88;;;13.54;83.97
27643;BME280;15053;48.618;10.024;2023-05-12T08:52:02;93996.72;;;13.39;84.59
27643;BME280;15053;48.618;10.024;2023-05-12T08:54:28;93998.91;;;13.29;84.69
27643;BME280;15053;48.618;10.024;2023-05-12T08:56:56;94002.91;;;13.18;85.03
27643;BME280;15053;48.618;10.024;2023-05-12T08:59:25;94000.25;;;13.00;85.09
27643;BME280;15053;48.618;10.024;2023-05-12T09:01:53;93998.41;;;12.84;85.70
27643;BME280;15053;48.618;10.024;2023-05-12T09:04:20;93999.00;;;12.72;85.83
27643;BME280;15053;48.618;10.024;2023-05-12T09:06:47;94004.06;;;12.69;86.03
27643;BME280;15053;48.618;10.024;2023-05-12T09:09:16;94006.66;;;12.60;86.00
27643;BME280;15053;48.618;10.024;2023-05-12T09:11:42;94008.34;;;12.56;86.66
27643;BME280;15053;48.618;10.024;2023-05-12T09:14:17;94018.63;;;12.53;87.06
27643;BME280;15053;48.618;10.024;2023-05-12T09:16:49;94009.25;;;12.52;87.07
27643;BME280;15053;48.618;10.024;2023-05-12T09:19:19;94014.16;;;12.53;87.33
27643;BME280;15053;48.618;10.024;2023-05-12T09:21:47;94017.72;;;12.57;87.74
27643;BME280;15053;48.618;10.024;2023-05-12T09:24:13;94024.22;;;12.68;88.07
27643;BME280;15053;48.618;10.024;2023-05-12T09:26:46;94007.63;;;12.81;88.29
27643;BME280;15053;48.618;10.024;2023-05-12T09:29:14;94006.69;;;12.94;87.42
27643;BME280;15053;48.618;10.024;2023-05-12T09:31:55;94009.69;;;13.10;88.11
27643;BME280;15053;48.618;10.024;2023-05-12T09:34:31;94008.88;;;13.27;87.63
27643;BME280;15053;48.618;10.024;2023-05-12T09:37:00;94010.56;;;13.40;87.89
27643;BME280;15053;48.618;10.024;2023-05-12T09:39:27;94005.47;;;13.43;86.91
27643;BME280;15053;48.618;10.024;2023-05-12T09:41:54;94007.19;;;13.48;87.09
27643;BME280;15053;48.618;10.024;2023-05-12T09:44:22;94014.06;;;13.61;86.61
27643;BME280;15053;48.618;10.024;2023-05-12T09:46:49;94016.22;;;13.68;85.90
27643;BME280;15053;48.618;10.024;2023-05-12T09:49:24;94013.44;;;13.73;85.59
27643;BME280;15053;48.618;10.024;2023-05-12T09:51:54;94007.88;;;13.74;85.08
27643;BME280;15053;48.618;10.024;2023-05-12T09:54:31;94013.72;;;13.80;84.56
27643;BME280;15053;48.618;10.024;2023-05-12T09:57:00;94011.44;;;13.78;84.67
27643;BME280;15053;48.618;10.024;2023-05-12T09:59:32;94021.28;;;13.81;84.56
27643;BME280;15053;48.618;10.024;2023-05-12T10:02:00;94009.88;;;13.86;84.21
27643;BME280;15053;48.618;10.024;2023-05-12T10:04:34;94015.84;;;13.95;84.28
27643;BME280;15053;48.618;10.024;2023-05-12T10:07:07;94005.66;;;14.02;82.89
27643;BME280;15053;48.618;10.024;2023-05-12T10:09:35;94013.31;;;14.07;83.60
27643;BME280;15053;48.618;10.024;2023-05-12T10:12:04;94018.38;;;14.12;83.32
27643;BME280;15053;48.618;10.024;2023-05-12T10:14:32;94012.06;;;14.22;83.74
27643;BME280;15053;48.618;10.024;2023-05-12T10:16:59;94017.44;;;14.34;83.64
27643;BME280;15053;48.618;10.024;2023-05-12T10:19:27;94021.22;;;14.45;83.79
27643;BME280;15053;48.618;10.024;2023-05-12T10:21:59;94018.88;;;14.52;83.42
27643;BME280;15053;48.618;10.024;2023-05-12T10:24:26;94019.75;;;14.56;83.18
27643;BME280;15053;48.618;10.024;2023-05-12T10:26:53;94021.94;;;14.54;83.14
27643;BME280;15053;48.618;10.024;2023-05-12T10:29:22;94025.78;;;14.56;83.36
27643;BME280;15053;48.618;10.024;2023-05-12T10:31:56;94022.53;;;14.59;83.18
27643;BME280;15053;48.618;10.024;2023-05-12T10:34:28;94023.63;;;14.58;82.66
27643;BME280;15053;48.618;10.024;2023-05-12T10:36:56;94022.56;;;14.51;82.54
27643;BME280;15053;48.618;10.024;2023-05-12T10:39:30;94016.44;;;14.47;82.50
27643;BME280;15053;48.618;10.024;2023-05-12T10:42:05;94028.63;;;14.43;81.92
27643;BME280;15053;48.618;10.024;2023-05-12T10:44:32;94023.28;;;14.31;81.86
27643;BME280;15053;48.618;10.024;2023-05-12T10:46:58;94027.59;;;14.27;82.02
27643;BME280;15053;48.618;10.024;2023-05-12T10:49:32;94021.56;;;14.26;82.18
27643;BME280;15053;48.618;10.024;2023-05-12T10:52:00;94026.03;;;14.26;81.86
27643;BME280;15053;48.618;10.024;2023-05-12T10:54:26;94016.47;;;14.30;81.99
27643;BME280;15053;48.618;10.024;2023-05-12T10:56:57;94020.75;;;14.43;82.10
27643;BME280;15053;48.618;10.024;2023-05-12T10:59:25;94014.66;;;14.59;82.33
27643;BME280;15053;48.618;10.024;2023-05-12T11:02:11;94016.69;;;14.83;81.85
27643;BME280;15053;48.618;10.024;2023-05-12T11:04:46;94022.72;;;15.04;81.15
27643;BME280;15053;48.618;10.024;2023-05-12T11:07:15;94021.81;;;15.21;80.49
27643;BME280;15053;48.618;10.024;2023-05-12T11:09:44;94022.63;;;15.33;79.32
27643;BME280;15053;48.618;10.024;2023-05-12T11:12:15;94028.66;;;15.34;78.59
27643;BME280;15053;48.618;10.024;2023-05-12T11:14:43;94025.97;;;15.22;77.84
27643;BME280;15053;48.618;10.024;2023-05-12T11:17:10;94030.53;;;15.13;78.08
27643;BME280;15053;48.618;10.024;2023-05-12T11:19:38;94031.84;;;14.98;77.93
27643;BME280;15053;48.618;10.024;2023-05-12T11:22:09;94038.75;;;14.82;77.77
27643;BME280;15053;48.618;10.024;2023-05-12T11:24:37;94037.94;;;14.61;78.62
27643;BME280;15053;48.618;10.024;2023-05-12T11:27:06;94039.72;;;14.40;79.52
27643;BME280;15053;48.618;10.024;2023-05-12T11:29:33;94037.03;;;14.19;79.91
27643;BME280;15053;48.618;10.024;2023-05-12T11:32:00;94040.47;;;14.02;80.78
27643;BME280;15053;48.618;10.024;2023-05-12T11:34:27;94039.44;;;13.86;80.56
27643;BME280;15053;48.618;10.024;2023-05-12T11:36:54;94047.47;;;13.64;80.80
27643;BME280;15053;48.618;10.024;2023-05-12T11:39:27;94049.66;;;13.53;81.59
27643;BME280;15053;48.618;10.024;2023-05-12T11:42:01;94045.66;;;13.39;82.41
27643;BME280;15053;48.618;10.024;2023-05-12T11:44:45;94052.28;;;13.28;82.99
27643;BME280;15053;48.618;10.024;2023-05-12T11:47:13;94046.25;;;13.19;83.57
27643;BME280;15053;48.618;10.024;2023-05-12T11:49:50;94055.81;;;13.15;84.34
27643;BME280;15053;48.618;10.024;2023-05-12T11:52:18;94061.66;;;13.12;85.39
27643;BME280;15053;48.618;10.024;2023-05-12T11:54:50;94055.47;;;13.08;86.44
27643;BME280;15053;48.618;10.024;2023-05-12T11:57:28;94053.81;;;13.12;86.49
27643;BME280;15053;48.618;10.024;2023-05-12T11:59:56;94059.03;;;13.12;86.90
27643;BME280;15053;48.618;10.024;2023-05-12T12:02:23;94062.59;;;13.16;87.50
27643;BME280;15053;48.618;10.024;2023-05-12T12:04:50;94062.13;;;13.22;87.43
27643;BME280;15053;48.618;10.024;2023-05-12T12:07:27;94055.22;;;13.26;87.17
27643;BME280;15053;48.618;10.024;2023-05-12T12:09:54;94057.19;;;13.38;87.34
27643;BME280;15053;48.618;10.024;2023-05-12T12:12:20;94062.13;;;13.48;87.31
27643;BME280;15053;48.618;10.024;2023-05-12T12:14:47;94060.25;;;13.57;87.10
27643;BME280;15053;48.618;10.024;2023-05-12T12:17:13;94063.63;;;13.57;87.28
27643;BME280;15053;48.618;10.024;2023-05-12T12:19:40;94068.59;;;13.50;86.83
27643;BME280;15053;48.618;10.024;2023-05-12T12:22:06;94061.63;;;13.46;87.39
27643;BME280;15053;48.618;10.024;2023-05-12T12:24:33;94064.91;;;13.43;87.44
27643;BME280;15053;48.618;10.024;2023-05-12T12:26:59;94064.91;;;13.43;87.44
27643;BME280;15053;48.618;10.024;2023-05-12T12:29:26;94062.91;;;13.48;87.51
27643;BME280;15053;48.618;10.024;2023-05-12T12:31:53;94065.66;;;13.52;87.30
27643;BME280;15053;48.618;10.024;2023-05-12T12:34:20;94074.09;;;13.57;87.35
27643;BME280;15053;48.618;10.024;2023-05-12T12:36:46;94068.25;;;13.60;87.23
27643;BME280;15053;48.618;10.024;2023-05-12T12:39:13;94069.47;;;13.63;86.86
27643;BME280;15053;48.618;10.024;2023-05-12T12:41:39;94071.66;;;13.70;86.38
27643;BME280;15053;48.618;10.024;2023-05-12T12:44:06;94070.69;;;13.74;86.04
27643;BME280;15053;48.618;10.024;2023-05-12T12:46:32;94069.78;;;13.79;85.41
27643;BME280;15053;48.618;10.024;2023-05-12T12:48:59;94073.47;;;13.86;85.82
27643;BME280;15053;48.618;10.024;2023-05-12T12:51:26;94073.31;;;13.91;85.25
27643;BME280;15053;48.618;10.024;2023-05-12T12:54:10;94067.13;;;13.96;85.06
27643;BME280;15053;48.618;10.024;2023-05-12T12:56:36;94072.34;;;14.04;84.90